Time;durP1;ratioP1;P1;durP2;ratioP2;P2;SDS_P1;SDS_P2;PMS_P1;PMS_P2;Temp;Humidity;BMP_temperature;BMP_pressure;BME280_temperature;BME280_humidity;BME280_pressure;Samples;Min_cycle;Max_cycle;Signal;HPM_P1;HPM_P2
2022/04/26 03:37:17;;;;;;;2.20;1.43;;;22.90;52.40;;;;;;5011931;28;20412;-85
2022/04/26 03:39:44;;;;;;;2.43;1.60;;;22.90;52.40;;;;;;4995559;28;20424;-85
2022/04/26 03:42:11;;;;;;;1.73;1.20;;;22.90;52.40;;;;;;5012053;28;20412;-85
2022/04/26 03:44:39;;;;;;;1.77;1.30;;;22.90;52.40;;;;;;5012485;28;20408;-85
2022/04/26 03:47:06;;;;;;;1.60;1.20;;;22.90;52.40;;;;;;4995150;28;21053;-85
2022/04/26 03:49:33;;;;;;;1.70;1.37;;;22.90;52.40;;;;;;4995147;28;20456;-85
2022/04/26 03:51:59;;;;;;;2.40;1.70;;;22.90;52.40;;;;;;4994972;28;20420;-85
2022/04/26 03:54:27;;;;;;;1.40;1.30;;;22.90;52.40;;;;;;5011411;28;20416;-85
2022/04/26 03:56:54;;;;;;;1.53;1.40;;;22.90;52.40;;;;;;5012769;28;20423;-85
2022/04/26 03:59:20;;;;;;;1.73;1.20;;;22.90;52.40;;;;;;4994741;28;20436;-85
2022/04/26 04:01:47;;;;;;;1.67;1.30;;;22.90;52.40;;;;;;5012279;28;20451;-85
2022/04/26 04:04:13;;;;;;;2.27;1.80;;;22.90;52.40;;;;;;4995112;28;20420;-85
2022/04/26 04:06:40;;;;;;;1.90;1.70;;;22.90;52.30;;;;;;5011811;28;20438;-85
2022/04/26 04:09:09;;;;;;;2.10;1.77;;;22.90;52.30;;;;;;4995599;28;20452;-85
2022/04/26 04:11:35;;;;;;;1.40;1.30;;;22.90;52.30;;;;;;5011157;28;20424;-85
2022/04/26 04:14:01;;;;;;;2.10;1.50;;;22.90;52.30;;;;;;5012031;28;20436;-85
2022/04/26 04:16:27;;;;;;;1.80;1.57;;;22.90;52.30;;;;;;5012315;28;20416;-85
2022/04/26 04:21:38;;;;;;;1.47;1.23;;;22.90;52.30;;;;;;5010442;28;20451;-84
2022/04/26 04:24:06;;;;;;;1.90;1.70;;;22.90;52.30;;;;;;5011552;28;20416;-85
2022/04/26 04:26:33;;;;;;;3.63;1.53;;;22.90;52.30;;;;;;5012427;28;20157;-84
2022/04/26 04:28:59;;;;;;;1.73;1.40;;;22.90;52.30;;;;;;4994880;28;20459;-87
2022/04/26 04:31:25;;;;;;;1.37;1.20;;;22.90;52.90;;;;;;4994775;28;20420;-86
2022/04/26 04:33:52;;;;;;;1.57;1.47;;;22.90;52.30;;;;;;5011350;28;20415;-85
2022/04/26 04:36:18;;;;;;;1.87;1.60;;;22.90;52.30;;;;;;4993371;28;20197;-85
2022/04/26 04:38:44;;;;;;;2.00;1.60;;;22.90;52.20;;;;;;5011651;28;20421;-85
2022/04/26 04:41:10;;;;;;;2.70;1.87;;;22.90;52.20;;;;;;5011395;28;20245;-85
2022/04/26 04:43:36;;;;;;;1.87;1.60;;;22.90;52.20;;;;;;4993876;28;20216;-85
2022/04/26 04:46:03;;;;;;;2.00;1.80;;;22.90;52.20;;;;;;4994009;28;20420;-85
2022/04/26 04:48:30;;;;;;;2.20;1.67;;;22.90;52.20;;;;;;4993790;28;20239;-84
2022/04/26 04:50:55;;;;;;;1.80;1.60;;;22.90;52.20;;;;;;4993415;28;20416;-85
2022/04/26 04:53:21;;;;;;;2.10;1.43;;;22.90;52.20;;;;;;4993419;28;20427;-85
2022/04/26 04:55:48;;;;;;;1.60;1.40;;;22.90;52.20;;;;;;4992849;28;20177;-85
2022/04/26 04:58:14;;;;;;;2.30;1.97;;;22.90;52.20;;;;;;4993237;28;20791;-85
2022/04/26 05:00:40;;;;;;;2.20;1.70;;;22.90;52.20;;;;;;4993682;28;20445;-85
2022/04/26 05:03:53;;;;;;;2.00;1.70;;;22.90;52.20;;;;;;5011072;28;20439;-85
2022/04/26 05:06:19;;;;;;;2.03;1.60;;;22.90;52.20;;;;;;4993361;28;20165;-84
2022/04/26 05:08:46;;;;;;;1.60;1.37;;;22.90;52.30;;;;;;4994747;28;20483;-85
2022/04/26 05:11:12;;;;;;;1.27;1.17;;;22.90;52.30;;;;;;5011082;28;20177;-85
2022/04/26 05:13:38;;;;;;;1.80;1.70;;;22.90;52.30;;;;;;4994458;28;20447;-85
2022/04/26 05:16:04;;;;;;;2.00;1.80;;;22.90;52.30;;;;;;4994178;28;20189;-85
2022/04/26 05:21:53;;;;;;;1.77;1.60;;;22.90;52.30;;;;;;5010971;28;20412;-85
2022/04/26 05:27:06;;;;;;;2.27;1.67;;;22.90;52.30;;;;;;5012259;28;20400;-85
2022/04/26 05:29:32;;;;;;;1.97;1.47;;;22.90;52.30;;;;;;5030966;28;20447;-85
2022/04/26 05:31:58;;;;;;;2.07;1.83;;;22.90;52.30;;;;;;5011203;28;20185;-87
2022/04/26 05:34:24;;;;;;;2.40;1.63;;;22.90;52.30;;;;;;5033198;28;20418;-84
2022/04/26 05:36:53;;;;;;;1.70;1.60;;;22.90;52.20;;;;;;5034102;28;20546;-84
2022/04/26 05:39:19;;;;;;;1.43;1.30;;;22.90;52.20;;;;;;5035312;28;20180;-85
2022/04/26 05:41:44;;;;;;;2.00;1.80;;;22.90;52.20;;;;;;5034698;28;20419;-84
2022/04/26 05:44:10;;;;;;;3.10;1.50;;;22.90;52.20;;;;;;5017034;28;20227;-85
2022/04/26 05:46:36;;;;;;;2.00;1.60;;;22.90;52.20;;;;;;5008861;28;20199;-85
2022/04/26 05:49:02;;;;;;;1.77;1.50;;;22.90;52.20;;;;;;4997114;28;20207;-85
2022/04/26 05:51:29;;;;;;;2.10;1.90;;;22.90;52.20;;;;;;5013550;28;20419;-85
2022/04/26 05:53:55;;;;;;;1.70;1.40;;;22.90;52.20;;;;;;4997000;28;20277;-85
2022/04/26 05:56:21;;;;;;;2.07;1.60;;;22.90;52.20;;;;;;5031357;28;20901;-85
2022/04/26 05:58:48;;;;;;;1.77;1.37;;;22.90;52.20;;;;;;5035267;28;20185;-85
2022/04/26 06:01:15;;;;;;;1.47;1.27;;;22.90;52.20;;;;;;5017609;28;20186;-85
2022/04/26 06:03:41;;;;;;;2.00;1.60;;;22.90;52.20;;;;;;5034278;28;20465;-85
2022/04/26 06:06:09;;;;;;;2.27;1.60;;;22.90;52.20;;;;;;5017811;28;20419;-85
2022/04/26 06:08:35;;;;;;;2.13;1.37;;;22.90;52.20;;;;;;5014574;28;20196;-85
2022/04/26 06:11:01;;;;;;;2.17;1.97;;;22.90;52.20;;;;;;5015005;28;20443;-85
2022/04/26 06:13:29;;;;;;;2.20;1.83;;;22.90;52.80;;;;;;5033611;28;20176;-85
2022/04/26 06:15:55;;;;;;;1.80;1.50;;;22.90;52.20;;;;;;5017657;28;20438;-85
2022/04/26 06:18:21;;;;;;;1.70;1.30;;;22.90;52.20;;;;;;5030729;28;20419;-85
2022/04/26 06:20:47;;;;;;;1.50;1.33;;;22.90;52.20;;;;;;5016753;28;20462;-85
2022/04/26 06:23:13;;;;;;;1.57;1.47;;;22.90;52.20;;;;;;5032135;28;20177;-85
2022/04/26 06:29:02;;;;;;;2.33;1.30;;;22.90;52.20;;;;;;5029783;28;20289;-85
2022/04/26 06:31:27;;;;;;;2.03;1.30;;;22.90;52.20;;;;;;5016729;28;20420;-85
2022/04/26 06:33:53;;;;;;;1.63;1.37;;;22.90;52.20;;;;;;5027000;28;20438;-85
2022/04/26 06:36:20;;;;;;;1.63;1.53;;;22.90;52.20;;;;;;5031757;28;20447;-85
2022/04/26 06:38:46;;;;;;;3.23;1.63;;;22.90;52.20;;;;;;5033093;28;20433;-85
2022/04/26 06:41:12;;;;;;;1.80;1.30;;;22.90;52.20;;;;;;5030489;28;20180;-85
2022/04/26 06:43:38;;;;;;;1.87;1.67;;;22.90;52.20;;;;;;5025575;28;20247;-85
2022/04/26 06:46:03;;;;;;;2.40;2.03;;;22.90;52.20;;;;;;5017543;28;20192;-85
2022/04/26 06:48:30;;;;;;;1.50;1.40;;;22.90;52.20;;;;;;5014584;28;20208;-85
2022/04/26 06:50:56;;;;;;;1.67;1.40;;;22.90;52.20;;;;;;5011047;28;20500;-85
2022/04/26 06:53:22;;;;;;;1.93;1.50;;;22.90;52.20;;;;;;5032847;28;20422;-84
2022/04/26 06:55:48;;;;;;;1.50;1.20;;;22.90;52.20;;;;;;5020004;28;20426;-85
2022/04/26 06:58:14;;;;;;;1.87;1.10;;;22.90;52.20;;;;;;4986197;28;20972;-84
2022/04/26 07:00:43;;;;;;;1.63;1.40;;;22.90;52.20;;;;;;5029969;28;20463;-84
2022/04/26 07:03:09;;;;;;;1.60;1.10;;;22.90;52.20;;;;;;5016175;28;20451;-84
2022/04/26 07:05:36;;;;;;;1.60;1.50;;;22.90;52.20;;;;;;5008495;28;20427;-85
2022/04/26 07:08:03;;;;;;;1.47;1.37;;;22.90;52.20;;;;;;5022005;28;20411;-85
2022/04/26 07:10:31;;;;;;;2.20;1.70;;;22.90;52.20;;;;;;5014924;28;20462;-85
2022/04/26 07:12:58;;;;;;;2.00;1.60;;;22.90;52.20;;;;;;5031745;28;20427;-84
2022/04/26 07:15:25;;;;;;;1.73;1.40;;;22.90;52.20;;;;;;5015337;28;20415;-84
2022/04/26 07:17:52;;;;;;;1.60;1.50;;;22.90;52.20;;;;;;5031475;28;20488;-85
2022/04/26 07:20:18;;;;;;;1.90;1.50;;;22.90;52.20;;;;;;5014665;28;20423;-85
2022/04/26 07:22:46;;;;;;;1.73;1.40;;;22.90;52.20;;;;;;4999002;28;20423;-84
2022/04/26 07:25:12;;;;;;;2.53;1.80;;;22.90;52.20;;;;;;5013791;28;20435;-85
2022/04/26 07:27:39;;;;;;;2.00;1.67;;;22.90;52.20;;;;;;5014185;28;20437;-85
2022/04/26 07:30:09;;;;;;;1.97;1.40;;;22.90;52.20;;;;;;4996571;28;20459;-85
2022/04/26 07:35:19;;;;;;;2.03;1.40;;;22.90;52.20;;;;;;5031531;28;20402;-85
2022/04/26 07:37:45;;;;;;;1.60;1.50;;;22.90;52.20;;;;;;5014195;28;20411;-84
2022/04/26 07:40:11;;;;;;;1.60;1.50;;;22.90;52.20;;;;;;5013614;28;20243;-85
2022/04/26 07:42:37;;;;;;;1.30;1.20;;;22.90;52.20;;;;;;5013804;28;20248;-84
2022/04/26 07:45:03;;;;;;;3.43;1.80;;;22.90;52.20;;;;;;4996379;28;20438;-84
2022/04/26 07:47:30;;;;;;;2.10;1.63;;;22.90;52.20;;;;;;4994730;28;20433;-84
2022/04/26 07:49:57;;;;;;;1.70;1.47;;;22.90;52.20;;;;;;5027750;28;20462;-85
2022/04/26 07:52:23;;;;;;;1.70;1.57;;;22.90;52.20;;;;;;5031104;28;20419;-84
2022/04/26 07:54:50;;;;;;;1.80;1.23;;;22.90;52.20;;;;;;4998953;28;20431;-85
2022/04/26 07:57:19;;;;;;;1.57;1.40;;;22.90;52.20;;;;;;5028661;28;20444;-85
2022/04/26 07:59:46;;;;;;;1.87;1.60;;;22.90;52.20;;;;;;5004751;28;20484;-84
2022/04/26 08:02:14;;;;;;;1.40;1.30;;;22.90;52.20;;;;;;5024174;28;20979;-85
2022/04/26 08:04:41;;;;;;;2.27;1.80;;;22.90;52.20;;;;;;5018394;28;20420;-85
2022/04/26 08:07:07;;;;;;;2.23;1.20;;;22.90;52.20;;;;;;5018581;28;20415;-85
2022/04/26 08:09:35;;;;;;;1.87;1.47;;;22.90;52.20;;;;;;5030615;28;20450;-85
2022/04/26 08:12:02;;;;;;;1.23;1.13;;;22.90;52.20;;;;;;5013777;28;20180;-85
2022/04/26 08:14:29;;;;;;;1.80;1.43;;;22.90;52.20;;;;;;5025135;28;20417;-84
2022/04/26 08:16:59;;;;;;;1.53;1.30;;;22.90;52.20;;;;;;5028756;28;20427;-85
2022/04/26 08:19:24;;;;;;;1.70;1.60;;;22.90;52.20;;;;;;5007843;28;20429;-85
2022/04/26 08:21:50;;;;;;;1.93;1.53;;;22.90;52.20;;;;;;5024211;28;20447;-85
2022/04/26 08:29:50;;;;;;;2.47;1.03;;;22.90;52.20;;;;;;5032330;28;20473;-85
2022/04/26 08:32:19;;;;;;;1.10;1.00;;;22.90;52.20;;;;;;5023566;28;20431;-85
2022/04/26 08:34:46;;;;;;;1.73;1.50;;;22.90;52.20;;;;;;5032660;28;20418;-84
2022/04/26 08:37:12;;;;;;;1.83;1.57;;;22.90;52.20;;;;;;5024255;28;20415;-85
2022/04/26 08:39:37;;;;;;;2.47;1.30;;;22.90;52.20;;;;;;5015103;28;20204;-85
2022/04/26 08:42:06;;;;;;;1.50;1.40;;;22.90;52.20;;;;;;5000408;28;20181;-85
2022/04/26 08:44:34;;;;;;;1.60;1.30;;;22.90;52.20;;;;;;4975845;28;20271;-85
2022/04/26 08:52:45;;;;;;;1.50;1.40;;;22.90;52.20;;;;;;5018164;28;20406;-85
2022/04/26 08:55:11;;;;;;;2.10;1.60;;;22.90;52.20;;;;;;5031165;28;20399;-85
2022/04/26 08:57:38;;;;;;;1.73;1.40;;;22.90;52.20;;;;;;5009284;28;20513;-85
2022/04/26 09:00:07;;;;;;;2.27;1.43;;;22.90;52.20;;;;;;4996274;28;20184;-85
2022/04/26 09:02:33;;;;;;;1.87;1.60;;;22.90;52.20;;;;;;5009454;28;20423;-84
2022/04/26 09:05:10;;;;;;;1.60;1.20;;;22.90;52.20;;;;;;5024741;28;20779;-85
2022/04/26 09:07:39;;;;;;;2.07;1.60;;;22.90;52.20;;;;;;5031443;28;20434;-85
2022/04/26 09:10:18;;;;;;;2.33;1.67;;;22.90;52.20;;;;;;5034707;28;20455;-85
2022/04/26 09:13:15;;;;;;;1.60;1.30;;;22.90;52.20;;;;;;5012329;28;20445;-85
2022/04/26 09:15:51;;;;;;;2.00;1.37;;;22.90;52.20;;;;;;5014804;28;20803;-84
2022/04/26 09:18:38;;;;;;;1.23;1.10;;;22.90;52.20;;;;;;5017327;28;20430;-85
2022/04/26 09:21:07;;;;;;;1.47;1.30;;;22.80;52.10;;;;;;5034515;28;20494;-85
2022/04/26 09:23:34;;;;;;;1.60;1.40;;;22.90;52.20;;;;;;5013756;28;20523;-85
2022/04/26 09:26:11;;;;;;;1.30;1.10;;;22.90;52.20;;;;;;5030811;28;20419;-84
2022/04/26 09:28:42;;;;;;;1.60;1.40;;;22.90;52.20;;;;;;5010919;28;20505;-85
2022/04/26 09:31:22;;;;;;;1.70;1.40;;;22.90;52.20;;;;;;5017603;28;20442;-84
2022/04/26 09:33:53;;;;;;;1.60;1.30;;;22.90;52.20;;;;;;5026740;28;20426;-85
2022/04/26 09:36:24;;;;;;;3.13;1.30;;;22.90;52.20;;;;;;5012557;28;20408;-84
2022/04/26 09:38:53;;;;;;;1.23;1.07;;;22.90;52.20;;;;;;5013813;28;20426;-85
2022/04/26 09:41:20;;;;;;;1.37;1.27;;;22.90;52.20;;;;;;5012132;28;20479;-84
2022/04/26 09:44:02;;;;;;;1.70;1.50;;;22.90;52.20;;;;;;5030820;28;20958;-85
2022/04/26 09:46:40;;;;;;;1.80;1.17;;;22.90;52.20;;;;;;5023738;28;20415;-85
2022/04/26 09:49:09;;;;;;;1.70;1.50;;;22.90;52.20;;;;;;5009944;28;20496;-85
2022/04/26 09:51:37;;;;;;;1.40;1.10;;;22.90;52.20;;;;;;5013007;28;20438;-84
2022/04/26 09:54:04;;;;;;;1.10;1.00;;;22.90;52.20;;;;;;5010747;28;20418;-85
2022/04/26 09:56:31;;;;;;;1.30;1.20;;;22.90;52.20;;;;;;4991378;28;20432;-84
2022/04/26 09:58:59;;;;;;;1.90;1.47;;;22.90;52.20;;;;;;5022050;28;20762;-84
2022/04/26 10:01:41;;;;;;;1.27;1.00;;;22.90;52.20;;;;;;5016335;28;20589;-84
2022/04/26 10:04:11;;;;;;;1.30;1.03;;;22.90;52.20;;;;;;5018152;28;20427;-84
2022/04/26 10:06:40;;;;;;;2.00;1.60;;;22.90;52.20;;;;;;5001547;28;20434;-85
2022/04/26 10:09:08;;;;;;;1.70;1.27;;;22.90;52.20;;;;;;5007051;28;20459;-84
2022/04/26 10:11:34;;;;;;;1.77;1.60;;;22.90;52.20;;;;;;5014216;28;20416;-84
2022/04/26 10:14:06;;;;;;;1.77;1.10;;;22.90;52.20;;;;;;5011081;28;20408;-84
2022/04/26 10:16:33;;;;;;;2.00;1.33;;;22.90;52.20;;;;;;5005949;28;20415;-83
2022/04/26 10:19:11;;;;;;;1.70;1.10;;;22.90;52.20;;;;;;5022435;28;20431;-83
2022/04/26 10:21:40;;;;;;;1.40;1.30;;;22.90;52.20;;;;;;5013066;28;20423;-84
2022/04/26 10:24:06;;;;;;;1.60;1.20;;;22.90;52.20;;;;;;5013168;28;20427;-85
2022/04/26 10:26:33;;;;;;;1.50;1.20;;;22.90;52.20;;;;;;5010035;28;20454;-85
2022/04/26 10:29:14;;;;;;;1.30;1.20;;;22.90;52.20;;;;;;5024887;28;20467;-85
2022/04/26 10:32:02;;;;;;;1.30;1.20;;;22.90;52.20;;;;;;5006786;28;20415;-85
2022/04/26 10:34:30;;;;;;;1.53;1.17;;;22.90;52.20;;;;;;5029173;28;20401;-85
2022/04/26 10:37:22;;;;;;;1.77;1.53;;;22.90;52.20;;;;;;5009168;28;20419;-85
2022/04/26 10:40:04;;;;;;;1.63;1.27;;;22.90;52.20;;;;;;5022159;28;20420;-85
2022/04/26 10:42:35;;;;;;;1.60;1.10;;;22.90;52.20;;;;;;5012022;28;20411;-85
2022/04/26 10:45:09;;;;;;;1.60;1.27;;;22.80;52.20;;;;;;5023218;28;20450;-85
2022/04/26 10:47:35;;;;;;;1.80;1.33;;;22.90;52.20;;;;;;5020889;28;20419;-85
2022/04/26 10:50:03;;;;;;;4.30;1.43;;;22.80;52.10;;;;;;5006201;28;20456;-85
2022/04/26 10:52:33;;;;;;;1.70;1.40;;;22.90;52.30;;;;;;5007049;28;20995;-83
2022/04/26 10:55:03;;;;;;;2.70;1.50;;;22.90;52.30;;;;;;5026076;28;20929;-85
2022/04/26 10:57:42;;;;;;;1.70;1.43;;;22.90;52.20;;;;;;5008751;28;20451;-85
2022/04/26 11:00:29;;;;;;;1.43;1.17;;;22.90;52.20;;;;;;5025065;28;20408;-85
2022/04/26 11:03:04;;;;;;;1.97;1.20;;;22.90;52.20;;;;;;5011531;28;20423;-85
2022/04/26 11:05:32;;;;;;;2.47;1.30;;;22.90;52.30;;;;;;4994551;28;20470;-85
2022/04/26 11:08:04;;;;;;;1.50;1.20;;;22.90;52.30;;;;;;5004127;28;20917;-85
2022/04/26 11:11:00;;;;;;;1.70;1.50;;;22.90;52.20;;;;;;5003179;28;20456;-85
2022/04/26 11:13:21;;;;;;;1.90;1.30;;;22.90;52.20;;;;;;5023087;28;20419;-85
2022/04/26 11:15:47;;;;;;;2.37;1.23;;;22.90;52.30;;;;;;5024457;28;20420;-85
2022/04/26 11:18:20;;;;;;;1.30;1.20;;;22.90;52.30;;;;;;4998793;28;20430;-85
2022/04/26 11:20:47;;;;;;;2.07;1.53;;;22.90;52.20;;;;;;5024366;28;20490;-86
2022/04/26 11:29:31;;;;;;;1.43;1.30;;;22.90;52.20;;;;;;5023765;28;20443;-84
2022/04/26 11:31:59;;;;;;;1.40;1.23;;;22.90;52.20;;;;;;5033050;28;20411;-84
2022/04/26 11:34:46;;;;;;;1.53;1.43;;;22.90;52.30;;;;;;5033368;28;20400;-84
2022/04/26 11:37:13;;;;;;;1.40;1.17;;;22.90;52.40;;;;;;5033091;28;20451;-84
2022/04/26 11:39:40;;;;;;;1.43;1.20;;;22.90;52.40;;;;;;5014786;28;20426;-85
2022/04/26 11:42:07;;;;;;;1.30;1.20;;;22.90;52.30;;;;;;5014277;28;20487;-85
2022/04/26 11:44:35;;;;;;;1.63;1.43;;;22.90;52.30;;;;;;4999670;28;20419;-85
2022/04/26 11:47:00;;;;;;;2.00;1.53;;;22.90;52.30;;;;;;5033177;28;20434;-86
2022/04/26 11:49:42;;;;;;;1.77;1.27;;;22.90;52.30;;;;;;5015629;28;20483;-84
2022/04/26 11:52:08;;;;;;;1.30;1.20;;;22.90;52.30;;;;;;5016633;28;20176;-84
2022/04/26 11:54:35;;;;;;;1.70;1.13;;;22.90;52.30;;;;;;5016550;28;20947;-85
2022/04/26 11:57:01;;;;;;;1.23;1.10;;;22.90;52.20;;;;;;5033140;28;20173;-83
2022/04/26 11:59:29;;;;;;;1.50;1.30;;;22.90;52.20;;;;;;5015879;28;20430;-84
2022/04/26 12:01:58;;;;;;;1.30;1.20;;;22.90;52.20;;;;;;4999324;28;20478;-83
2022/04/26 12:04:26;;;;;;;2.00;1.43;;;22.90;52.20;;;;;;5015541;28;20439;-83
2022/04/26 12:06:54;;;;;;;1.50;1.20;;;22.90;52.20;;;;;;5005594;28;20454;-84
2022/04/26 12:09:24;;;;;;;1.33;1.23;;;22.90;52.20;;;;;;5030388;28;20458;-83
2022/04/26 12:12:02;;;;;;;1.90;1.30;;;22.90;52.20;;;;;;5013792;28;20431;-83
2022/04/26 12:14:28;;;;;;;1.40;1.30;;;22.90;52.20;;;;;;5012071;28;20426;-83
2022/04/26 12:16:56;;;;;;;2.37;1.30;;;22.90;52.30;;;;;;5031442;28;20415;-83
2022/04/26 12:19:36;;;;;;;2.20;1.70;;;22.90;52.30;;;;;;5031806;28;20419;-83
2022/04/26 12:22:03;;;;;;;2.47;1.40;;;22.90;52.80;;;;;;5029020;28;20434;-85
2022/04/26 12:24:33;;;;;;;1.80;1.70;;;22.90;52.30;;;;;;5031244;28;20439;-83
2022/04/26 12:27:04;;;;;;;1.97;1.40;;;22.90;52.30;;;;;;5010908;28;20435;-84
2022/04/26 12:29:36;;;;;;;2.00;1.40;;;22.90;52.30;;;;;;5029897;28;20508;-84
2022/04/26 12:32:12;;;;;;;1.60;1.30;;;23.00;52.30;;;;;;5028566;28;20427;-84
2022/04/26 12:34:57;;;;;;;2.63;1.80;;;23.00;52.40;;;;;;5031958;28;20411;-84
2022/04/26 12:37:29;;;;;;;1.40;1.30;;;23.00;52.30;;;;;;5011623;28;20498;-84
2022/04/26 12:40:00;;;;;;;1.43;1.33;;;23.00;52.30;;;;;;5031529;28;20423;-84
2022/04/26 12:42:36;;;;;;;2.10;1.70;;;23.00;52.30;;;;;;5011453;28;20473;-84
2022/04/26 12:45:10;;;;;;;1.97;1.57;;;23.00;52.30;;;;;;5026917;28;20416;-84
2022/04/26 12:50:41;;;;;;;1.77;1.33;;;23.00;52.30;;;;;;5026597;28;20449;-84
2022/04/26 12:53:08;;;;;;;2.03;1.43;;;23.00;52.30;;;;;;4942763;29;20492;-84
2022/04/26 12:58:56;;;;;;;2.10;1.10;;;23.00;52.30;;;;;;4936779;29;20390;-84
2022/04/26 13:01:22;;;;;;;2.10;1.27;;;23.00;52.30;;;;;;4931760;29;20426;-84
2022/04/26 13:03:48;;;;;;;1.90;1.30;;;23.00;52.30;;;;;;4938422;29;20650;-84
2022/04/26 13:06:21;;;;;;;1.90;1.70;;;23.00;52.30;;;;;;4935921;29;20180;-85
2022/04/26 13:08:48;;;;;;;1.60;1.30;;;23.00;52.30;;;;;;4943059;29;20517;-84
2022/04/26 13:11:18;;;;;;;1.33;1.20;;;23.00;52.20;;;;;;4935446;29;20901;-84
2022/04/26 13:13:49;;;;;;;2.57;1.73;;;23.00;52.20;;;;;;4919987;29;20438;-85
2022/04/26 13:16:16;;;;;;;2.97;1.70;;;23.00;52.20;;;;;;4935520;29;20404;-84
2022/04/26 13:18:42;;;;;;;2.17;1.27;;;23.00;52.20;;;;;;4926505;29;20531;-84
2022/04/26 13:21:08;;;;;;;2.50;1.53;;;23.10;52.30;;;;;;4945494;29;20426;-84
2022/04/26 13:23:36;;;;;;;1.97;1.60;;;23.10;52.30;;;;;;4936270;29;20463;-84
2022/04/26 13:26:02;;;;;;;2.07;1.80;;;23.10;52.20;;;;;;4935730;29;20443;-84
2022/04/26 13:28:28;;;;;;;2.03;1.20;;;23.10;52.20;;;;;;4934372;29;20448;-85
2022/04/26 13:30:55;;;;;;;3.70;1.50;;;23.10;52.20;;;;;;5006395;28;20462;-85
2022/04/26 13:33:20;;;;;;;2.03;1.30;;;23.10;52.20;;;;;;4982351;28;20451;-85
2022/04/26 13:35:47;;;;;;;1.50;1.40;;;23.10;52.20;;;;;;5013900;28;20429;-83
2022/04/26 13:38:13;;;;;;;2.60;1.60;;;23.10;52.30;;;;;;5006448;28;20176;-83
2022/04/26 13:40:41;;;;;;;2.00;1.33;;;23.10;52.30;;;;;;5031675;28;20445;-84
2022/04/26 13:43:09;;;;;;;2.50;1.70;;;23.10;52.30;;;;;;5030774;28;20427;-85
2022/04/26 13:45:35;;;;;;;3.27;1.60;;;23.10;52.40;;;;;;5032438;28;20415;-84
2022/04/26 13:48:08;;;;;;;2.23;1.43;;;23.10;52.30;;;;;;5032631;28;20434;-85
2022/04/26 13:50:35;;;;;;;4.80;1.63;;;23.10;52.30;;;;;;5033097;28;20447;-85
2022/04/26 13:53:01;;;;;;;1.80;1.40;;;23.10;52.30;;;;;;5015279;28;20421;-84
2022/04/26 13:55:27;;;;;;;1.90;1.40;;;23.10;52.30;;;;;;5020890;28;20430;-84
2022/04/26 13:57:54;;;;;;;1.90;1.50;;;23.10;52.20;;;;;;5056532;28;20170;-84
2022/04/26 14:00:22;;;;;;;2.23;1.37;;;23.10;52.20;;;;;;5038742;28;20789;-84
2022/04/26 14:02:48;;;;;;;2.47;1.47;;;23.10;52.20;;;;;;5056267;28;20414;-84
2022/04/26 14:05:17;;;;;;;4.03;1.73;;;23.10;52.20;;;;;;5038062;28;20410;-85
2022/04/26 14:07:46;;;;;;;1.87;1.23;;;23.10;52.20;;;;;;5042015;28;20423;-85
2022/04/26 14:10:14;;;;;;;2.40;1.23;;;23.10;52.20;;;;;;5035525;28;20524;-84
2022/04/26 14:12:41;;;;;;;4.50;1.30;;;23.10;52.20;;;;;;5017712;28;20457;-84
2022/04/26 14:23:26;;;;;;;2.00;1.40;;;23.10;52.30;;;;;;5017402;28;20447;-84
2022/04/26 14:25:52;;;;;;;3.83;1.67;;;23.10;52.30;;;;;;5017736;28;20479;-84
2022/04/26 14:28:18;;;;;;;4.30;1.73;;;23.10;52.30;;;;;;5001383;28;20427;-84
2022/04/26 14:30:45;;;;;;;1.87;1.33;;;23.10;52.20;;;;;;5017939;28;20419;-84
2022/04/26 14:33:14;;;;;;;1.97;1.50;;;23.10;52.20;;;;;;5035809;28;20186;-84
2022/04/26 14:35:40;;;;;;;1.90;1.80;;;23.10;52.20;;;;;;5035615;28;20442;-84
2022/04/26 14:38:10;;;;;;;2.50;1.43;;;23.10;52.20;;;;;;5034909;28;20435;-84
2022/04/26 14:40:37;;;;;;;1.73;1.57;;;23.10;52.20;;;;;;5034929;28;20473;-84
2022/04/26 14:43:06;;;;;;;3.33;1.40;;;23.10;52.20;;;;;;5035674;28;20418;-84
2022/04/26 14:45:32;;;;;;;1.73;1.37;;;23.10;52.20;;;;;;5018173;28;20439;-84
2022/04/26 14:48:00;;;;;;;2.30;1.53;;;23.10;52.20;;;;;;5018326;28;20420;-84
2022/04/26 14:50:32;;;;;;;4.03;1.77;;;23.10;52.20;;;;;;5019043;28;20466;-84
2022/04/26 14:53:02;;;;;;;1.93;1.27;;;23.10;52.20;;;;;;5035312;28;20414;-84
2022/04/26 14:55:28;;;;;;;1.67;1.30;;;23.10;52.20;;;;;;5002311;28;20427;-84
2022/04/26 14:57:54;;;;;;;1.40;1.17;;;23.10;52.20;;;;;;5014111;28;20444;-83
2022/04/26 15:00:21;;;;;;;2.20;1.60;;;23.10;52.20;;;;;;5017289;28;20169;-83
2022/04/26 15:02:47;;;;;;;2.70;1.60;;;23.10;52.20;;;;;;5017722;28;20214;-83
2022/04/26 15:05:13;;;;;;;2.90;1.60;;;23.10;52.20;;;;;;5017258;28;20419;-83
2022/04/26 15:10:25;;;;;;;2.43;1.57;;;23.10;52.20;;;;;;5020163;28;20454;-83
2022/04/26 15:18:21;;;;;;;1.67;1.33;;;23.10;52.20;;;;;;5034656;28;20468;-84
2022/04/26 15:20:53;;;;;;;4.43;1.37;;;23.10;52.30;;;;;;5017412;28;20411;-85
2022/04/26 15:23:20;;;;;;;1.40;1.23;;;23.10;52.20;;;;;;5001784;28;20443;-88
2022/04/26 15:25:50;;;;;;;1.30;1.10;;;23.10;52.20;;;;;;5015856;28;20504;-83
2022/04/26 15:31:39;;;;;;;1.80;1.30;;;23.10;52.30;;;;;;5015606;28;20404;-84
2022/04/26 15:34:08;;;;;;;1.77;1.33;;;23.10;52.30;;;;;;4998656;28;20427;-83
2022/04/26 15:36:35;;;;;;;1.77;1.30;;;23.10;52.30;;;;;;5015232;28;20408;-83
2022/04/26 15:39:02;;;;;;;1.80;1.30;;;23.10;52.30;;;;;;5014361;28;20915;-82
2022/04/26 15:41:32;;;;;;;1.70;1.37;;;23.10;52.30;;;;;;5003951;28;20412;-83
2022/04/26 15:44:00;;;;;;;2.33;1.47;;;23.10;52.30;;;;;;5034875;28;20414;-84
2022/04/26 15:46:33;;;;;;;2.40;1.37;;;23.10;52.30;;;;;;5017942;28;20479;-83
2022/04/26 15:48:59;;;;;;;2.00;1.30;;;23.10;52.30;;;;;;5017763;28;20457;-83
2022/04/26 15:51:25;;;;;;;1.37;1.20;;;23.10;52.30;;;;;;5034890;28;20391;-82
2022/04/26 15:53:53;;;;;;;1.43;1.30;;;23.10;52.30;;;;;;5033313;28;20203;-83
2022/04/26 15:56:21;;;;;;;1.63;1.30;;;23.10;52.30;;;;;;5034416;28;20439;-83
2022/04/26 15:58:48;;;;;;;3.40;1.43;;;23.10;52.30;;;;;;5015521;28;20415;-83
2022/04/26 16:01:14;;;;;;;3.67;1.50;;;23.10;52.30;;;;;;5033414;28;20475;-82
2022/04/26 16:03:52;;;;;;;1.70;1.60;;;23.10;52.20;;;;;;5018211;28;20427;-82
2022/04/26 16:06:19;;;;;;;1.50;1.17;;;23.10;52.30;;;;;;5017176;28;20455;-82
2022/04/26 16:08:46;;;;;;;1.80;1.40;;;23.10;52.20;;;;;;5018011;28;20455;-82
2022/04/26 16:22:13;;;;;;;2.70;1.53;;;23.10;52.30;;;;;;5016529;28;20383;-82
2022/04/26 16:24:40;;;;;;;1.30;1.20;;;23.10;52.30;;;;;;5016520;28;20400;-82
2022/04/26 16:27:07;;;;;;;2.47;1.43;;;23.10;52.30;;;;;;5016992;28;20507;-82
2022/04/26 16:29:34;;;;;;;1.97;1.30;;;23.10;52.30;;;;;;5000139;28;20464;-82
2022/04/26 16:32:00;;;;;;;2.20;1.77;;;23.10;52.30;;;;;;5000474;28;20421;-83
2022/04/26 16:34:25;;;;;;;3.10;1.50;;;23.10;52.30;;;;;;4999602;28;20435;-83
2022/04/26 16:36:51;;;;;;;2.43;1.30;;;23.10;52.30;;;;;;4999821;28;20479;-83
2022/04/26 16:39:17;;;;;;;2.87;1.57;;;23.10;52.30;;;;;;5035947;28;20244;-83
2022/04/26 16:41:43;;;;;;;2.17;1.60;;;23.10;52.30;;;;;;5018573;28;20415;-83
2022/04/26 16:44:09;;;;;;;2.07;1.40;;;23.10;52.30;;;;;;5018172;28;20248;-82
2022/04/26 16:49:57;;;;;;;3.50;1.37;;;23.20;52.40;;;;;;5032453;28;20227;-83
2022/04/26 16:52:26;;;;;;;1.53;1.20;;;23.10;52.30;;;;;;5034558;28;20408;-83
2022/04/26 16:54:55;;;;;;;1.77;1.30;;;23.10;52.30;;;;;;5018423;28;20172;-83
2022/04/26 16:57:21;;;;;;;3.13;1.23;;;23.10;52.30;;;;;;5016936;28;20447;-83
2022/04/26 16:59:46;;;;;;;1.97;1.40;;;23.10;52.30;;;;;;5034676;28;20422;-83
2022/04/26 17:02:14;;;;;;;2.73;1.40;;;23.20;52.40;;;;;;5017854;28;20248;-83
2022/04/26 17:04:41;;;;;;;21.13;1.93;;;23.10;52.40;;;;;;5018110;28;20180;-83
2022/04/26 17:07:06;;;;;;;2.03;1.13;;;23.20;52.40;;;;;;5016616;28;20455;-86
2022/04/26 17:09:34;;;;;;;2.30;1.27;;;23.20;52.40;;;;;;5017347;28;20479;-83
2022/04/26 17:12:01;;;;;;;1.63;1.50;;;23.20;52.40;;;;;;5017473;28;20168;-84
2022/04/26 17:14:27;;;;;;;3.77;1.23;;;23.20;52.40;;;;;;5016877;28;20403;-82
2022/04/26 17:16:54;;;;;;;3.47;1.67;;;23.20;52.30;;;;;;5034552;28;20406;-83
2022/04/26 17:19:20;;;;;;;1.43;1.30;;;23.20;52.30;;;;;;5017563;28;20207;-83
2022/04/26 17:21:46;;;;;;;1.70;1.30;;;23.20;52.30;;;;;;5034576;28;20450;-83
2022/04/26 17:27:04;;;;;;;3.07;1.40;;;23.20;52.30;;;;;;5024671;28;20499;-83
2022/04/26 17:29:30;;;;;;;2.70;1.37;;;23.20;52.40;;;;;;5018815;28;20468;-83
2022/04/26 17:31:58;;;;;;;1.53;1.40;;;23.20;52.30;;;;;;5021924;28;20434;-83
2022/04/26 17:34:27;;;;;;;1.73;1.23;;;23.20;52.30;;;;;;5021914;28;20398;-83
2022/04/26 17:36:54;;;;;;;2.40;1.23;;;23.20;52.30;;;;;;5021424;28;20411;-83
2022/04/26 17:39:22;;;;;;;2.30;1.20;;;23.20;52.40;;;;;;5022097;28;20415;-82
2022/04/26 17:41:54;;;;;;;2.97;1.50;;;23.20;52.40;;;;;;5038735;28;20423;-83
2022/04/26 17:44:33;;;;;;;2.13;1.30;;;23.20;52.40;;;;;;5039131;28;21068;-83
2022/04/26 17:47:04;;;;;;;3.53;1.33;;;23.20;52.40;;;;;;5039788;28;20392;-82